Flight Track Log - Related Links

Times and Time Zones

All times are in EDT time to prevent confusion due to time zone crossing. See the CTL22 flight status page for this flight to view local times or setup timezone preferences in your user account.


Time Position Orientation Groundspeed Altitude Reporting Facility
EDT Latitude Longitude Course Direction KTS MPH feet Rate Location/Type
Tue 09:38:54 PM 41.5519 -81.7319 328° Northwest 166 191 2,000  Level Cleveland Center
Tue 09:39:55 PM 41.5764 -81.7878 300° West 179 206 2,000 492 Level Cleveland Center
Tue 09:40:56 PM 41.5986 -81.8381 301° West 147 169 3,000 843 Climbing Cleveland Center
Tue 09:41:56 PM 41.6211 -81.8831 304° West 132 152 3,700 756 Climbing Cleveland Center
Tue 09:43:03 PM 41.6372 -81.9250 297° West 126 145 4,600 750 Climbing Cleveland Center
Tue 09:44:04 PM 41.6556 -81.9700 299° West 120 138 5,300 645 Climbing Cleveland Center
Tue 09:45:04 PM 41.6717 -82.0119 297° West 121 139 5,900 231 Climbing Cleveland Center
Tue 09:47:06 PM 41.7122 -82.0964 303° West 147 169 6,000 33 Climbing Cleveland Center
Tue 09:48:06 PM 41.7325 -82.1442 300° West 145 167 6,000  Level Cleveland Center
Tue 09:49:07 PM 41.7528 -82.1919 300° West 149 171 6,000  Level Cleveland Center
Tue 09:50:07 PM 41.7769 -82.2369 306° West 147 169 6,000  Level Cleveland Center
Tue 09:51:56 PM 41.8111 -82.3272 297° West 146 168 6,000  Level Cleveland Center
Tue 09:52:43 PM 41.8336 -82.3611 312° West 149 171 6,000  Level Cleveland Center
Tue 09:53:44 PM 41.8536 -82.4064 301° West 149 171 6,000 58 Level Cleveland Center
Tue 09:54:27 PM 41.8678 -82.4347 304° West 146 168 6,100 52 Climbing Cleveland Center
Tue 09:55:39 PM 41.8939 -82.4939 301° West 143 165 6,100 -47 Level Cleveland Center
Tue 09:56:34 PM 41.9142 -82.5336 304° West 145 167 6,000  Descending Cleveland Center
Tue 09:57:29 PM 41.9342 -82.5761 302° West 144 166 6,100 52 Climbing Cleveland Center
Tue 09:58:30 PM 41.9564 -82.6214 303° West 145 167 6,100 -49 Level Cleveland Center
Tue 09:59:31 PM 41.9828 -82.6642 310° West 147 169 6,000 -43 Descending Cleveland Center
Tue 10:00:50 PM 42.0089 -82.7239 300° West 142 163 6,000  Level Cleveland Center
Tue 10:01:50 PM 42.0331 -82.7692 306° West 145 167 6,000 47 Level Cleveland Center
Tue 10:02:57 PM 42.0569 -82.8233 301° West 145 167 6,100  Climbing Cleveland Center
Tue 10:03:39 PM 42.0667 -82.8544 293° West 144 166 6,000 -62 Descending Cleveland Center
Tue 10:04:34 PM 42.0844 -82.8997 298° West 144 166 6,000 41 Level Cleveland Center
Tue 10:06:05 PM 42.1122 -82.9736 297° West 147 169 6,100 39 Climbing Cleveland Center
Tue 10:07:06 PM 42.1319 -83.0219 299° West 147 169 6,100 -61 Level Cleveland Center
Tue 10:07:43 PM 42.1461 -83.0506 304° West 147 169 6,000  Descending Cleveland Center
Tue 10:08:49 PM 42.1636 -83.1017 295° West 145 167 6,100  Climbing Cleveland Center
Tue 10:09:44 PM 42.1814 -83.1472 298° West 146 168 6,000  Descending Cleveland Center
Tue 10:10:39 PM 42.1950 -83.1953 291° West 147 169 6,100  Climbing Cleveland Center
Tue 10:11:52 PM 42.2144 -83.2578 293° West 144 166 6,000  Descending Cleveland Center
Tue 10:12:58 PM 42.2319 -83.3119 294° West 138 159 6,100  Climbing Cleveland Center
Tue 10:14:05 PM 42.2472 -83.3658 291° West 140 161 6,000 -45 Descending Cleveland Center
Tue 10:15:12 PM 42.2647 -83.4200 294° West 141 162 6,000  Level Cleveland Center
Tue 10:15:49 PM 42.2744 -83.4511 293° West 140 161 6,000 62 Level Cleveland Center
Tue 10:16:49 PM 42.2900 -83.4939 296° West 142 163 6,100 52 Climbing Cleveland Center
Tue 10:17:44 PM 42.3056 -83.5397 295° West 143 165 6,100  Level Cleveland Center
Tue 10:22:53 PM 42.3889 -83.7906 294° West 145 167 6,100 -16 Level Chicago Center
Tue 10:23:55 PM 42.4089 -83.8369 300° West 144 166 6,000 -49 Descending Chicago Center
Tue 10:24:56 PM 42.4217 -83.8853 290° West 141 162 6,000 49 Level Chicago Center
Tue 10:25:57 PM 42.4356 -83.9319 292° West 136 157 6,100  Climbing Chicago Center
Tue 10:26:59 PM 42.4497 -83.9783 292° West 134 154 6,000 -49 Descending Chicago Center
Tue 10:28:00 PM 42.4636 -84.0256 292° West 136 157 6,000  Level Chicago Center
Tue 10:29:01 PM 42.4817 -84.0706 299° West 137 158 6,000  Level Chicago Center
Tue 10:30:03 PM 42.4986 -84.1189 295° West 141 162 6,000  Level Chicago Center
Tue 10:31:04 PM 42.5142 -84.1689 293° West 144 166 6,000  Level Chicago Center
Tue 10:32:05 PM 42.5278 -84.2181 291° West 140 161 6,000  Level Chicago Center
Tue 10:33:07 PM 42.5506 -84.2742 299° West 143 165 6,000  Level Chicago Center
Tue 10:34:08 PM 42.5675 -84.3247 294° West 147 169 6,000  Level Chicago Center
Tue 10:35:09 PM 42.5850 -84.3792 294° West 155 178 6,000  Level Chicago Center
Tue 10:36:10 PM 42.6025 -84.4308 295° West 154 177 6,000  Level Chicago Center
Tue 10:37:12 PM 42.6158 -84.4842 299° West 151 174 6,000  Level Chicago Center
Tue 10:38:13 PM 42.6303 -84.5372 290° West 150 173 6,000  Level Chicago Center
Tue 10:39:14 PM 42.6444 -84.5936 289° West 156 180 6,000  Level Chicago Center
Tue 10:40:16 PM 42.6581 -84.6469 289° West 153 176 6,000 49 Level Chicago Center
Tue 10:41:17 PM 42.6700 -84.7011 287° West 151 174 6,100  Climbing Chicago Center
Tue 10:42:18 PM 42.6875 -84.7678 290° West 156 180 6,000 -49 Descending Chicago Center
Tue 10:43:20 PM 42.7006 -84.8217 288° West 152 175 6,000  Level Chicago Center
Tue 10:44:21 PM 42.7153 -84.8742 291° West 150 173 6,000  Level Chicago Center
Tue 10:45:22 PM 42.7294 -84.9275 290° West 150 173 6,000 -244 Level Chicago Center
Tue 10:46:24 PM 42.7450 -84.9825 291° West 154 177 5,500 -634 Descending Chicago Center
Tue 10:47:25 PM 42.7617 -85.0444 290° West 169 194 4,700 -829 Descending Chicago Center
Tue 10:48:27 PM 42.7797 -85.1083 291° West 178 205 3,800 -780 Descending Chicago Center
Tue 10:49:28 PM 42.7994 -85.1717 293° West 180 207 3,100 -639 Descending Chicago Center
Tue 10:50:29 PM 42.8167 -85.2361 290° West 181 208 2,500 -295 Descending Chicago Center
Tue 10:51:30 PM 42.8361 -85.3061 291° West 171 197 2,500 -195 Level Chicago Center
Tue 10:52:32 PM 42.8528 -85.3619 292° West 162 186 2,100 -341 Descending Chicago Center
Tue 10:53:33 PM 42.8658 -85.4194 287° West 160 184 1,800 -443 Descending Chicago Center
Tue 10:54:34 PM 42.8789 -85.4783 287° West 162 186 1,200 -590 Descending Chicago Center
Tue 10:56:00 PM 42.8667 -85.5167 270° West  Level FlightAware Approximate

Login

Don't have an account? Register now (free) for customized features, flight alerts, and more!